Nanci-mar — CUCU2 — position and weather

sailwx.info

Track history (hours):
 
Tides and Currents Weather Stations Pressure Air Temp Water Temp Dewpoint Dewpoint Depression Visibility Wind Speed Wind Dir Waves Ship Positions

Nanci-mar

Last reported at 2017-Dec-08 20:37 UTC. Time now 2017-Dec-16 12:50 UTC.
Position N 41°11' W 008°42'.

Length 17 m.

Type: Fishing. MMSI: 263408240.

Date/timePositionNaut miles runAvg speedWind from/ knotsBaromVisibWave heightAir tempDewpointWater temp
2017-Dec-08 20:37N 41°11' W 008°42'0 0.0
2017-Dec-08 20:30N 41°11' W 008°42'0 0.0
2017-Dec-08 20:00N 41°11' W 008°42'0 0.1
2017-Dec-08 19:30N 41°11' W 008°42'0 0.0
2017-Dec-07 16:54N 41°11' W 008°42'0 0.0
2017-Dec-07 16:30N 41°11' W 008°42'0 0.0
2017-Dec-07 16:00N 41°11' W 008°42'0 0.0
2017-Dec-07 15:30N 41°11' W 008°42'3 5.9
2017-Dec-07 15:00N 41°09' W 008°45'1 0.1
2017-Dec-07 00:51N 41°09' W 008°47'3 8.3
2017-Dec-07 00:30N 41°10' W 008°43'  
2017-Dec-04 01:06N 41°08' W 008°48'1 8.4
2017-Dec-04 01:01N 41°08' W 008°47'4 7.9
2017-Dec-04 00:31N 41°10' W 008°42'  
2017-Nov-29 13:06N 41°11' W 008°42'0 0.0
2017-Nov-29 13:00N 41°11' W 008°42'0 0.0
2017-Nov-29 12:30N 41°11' W 008°42'0 0.0
2017-Nov-29 12:01N 41°11' W 008°42'0 0.0
2017-Nov-29 11:30N 41°11' W 008°42'0 0.0
2017-Nov-29 11:00N 41°11' W 008°42'0 0.0
2017-Nov-29 10:30N 41°11' W 008°42'0 0.0
2017-Nov-29 10:00N 41°11' W 008°42'0 0.0
2017-Nov-29 09:30N 41°11' W 008°42'2 4.5
2017-Nov-29 09:00N 41°09' W 008°44'2 0.3
2017-Nov-29 00:50N 41°08' W 008°47'3 8.7
2017-Nov-29 00:30N 41°10' W 008°43'  
Track history (hours):
 
Tides and Currents Weather Stations Pressure Air Temp Water Temp Dewpoint Dewpoint Depression Visibility Wind Speed Wind Dir Waves Ship Positions

Nanci-mar

Last reported at 2017-Dec-08 20:37 UTC. Time now 2017-Dec-16 12:50 UTC.
Position N 41°11' W 008°42'.

Length 17 m.

Type: Fishing. MMSI: 263408240.

Date/timePositionNaut miles runAvg speedWind from/ knotsBaromVisibWave heightAir tempDewpointWater temp
2017-Dec-08 20:37N 41°11' W 008°42'0 0.0
2017-Dec-08 20:30N 41°11' W 008°42'0 0.0
2017-Dec-08 20:00N 41°11' W 008°42'0 0.1
2017-Dec-08 19:30N 41°11' W 008°42'0 0.0
2017-Dec-07 16:54N 41°11' W 008°42'0 0.0
2017-Dec-07 16:30N 41°11' W 008°42'0 0.0
2017-Dec-07 16:00N 41°11' W 008°42'0 0.0
2017-Dec-07 15:30N 41°11' W 008°42'3 5.9
2017-Dec-07 15:00N 41°09' W 008°45'1 0.1
2017-Dec-07 00:51N 41°09' W 008°47'3 8.3
2017-Dec-07 00:30N 41°10' W 008°43'  
2017-Dec-04 01:06N 41°08' W 008°48'1 8.4
2017-Dec-04 01:01N 41°08' W 008°47'4 7.9
2017-Dec-04 00:31N 41°10' W 008°42'  
2017-Nov-29 13:06N 41°11' W 008°42'0 0.0
2017-Nov-29 13:00N 41°11' W 008°42'0 0.0
2017-Nov-29 12:30N 41°11' W 008°42'0 0.0
2017-Nov-29 12:01N 41°11' W 008°42'0 0.0
2017-Nov-29 11:30N 41°11' W 008°42'0 0.0
2017-Nov-29 11:00N 41°11' W 008°42'0 0.0
2017-Nov-29 10:30N 41°11' W 008°42'0 0.0
2017-Nov-29 10:00N 41°11' W 008°42'0 0.0
2017-Nov-29 09:30N 41°11' W 008°42'2 4.5
2017-Nov-29 09:00N 41°09' W 008°44'2 0.3
2017-Nov-29 00:50N 41°08' W 008°47'3 8.7
2017-Nov-29 00:30N 41°10' W 008°43'  

Dump ship's entire track history